Time;durP1;ratioP1;P1;durP2;ratioP2;P2;SDS_P1;SDS_P2;PMS_P1;PMS_P2;Temp;Humidity;BMP_temperature;BMP_pressure;BME280_temperature;BME280_humidity;BME280_pressure;Samples;Min_cycle;Max_cycle;Signal;HPM_P1;HPM_P2
2022/12/20 00:00:52;;;;;;;61.05;30.80;;;;;;;0.70;94.35;99052.56;5030186;28;20052;-80
2022/12/20 00:03:19;;;;;;;62.38;31.50;;;;;;;0.63;94.64;99046.41;5041667;28;20060;-80
2022/12/20 00:05:45;;;;;;;55.38;28.45;;;;;;;0.94;94.57;99062.78;5025147;28;20388;-80
2022/12/20 00:08:11;;;;;;;54.92;28.13;;;;;;;0.77;94.34;99063.97;5027580;28;20033;-80
2022/12/20 00:10:42;;;;;;;65.53;30.35;;;;;;;0.72;95.05;99063.72;5029696;28;20051;-80
2022/12/20 00:13:08;;;;;;;56.78;29.70;;;;;;;0.77;95.22;99063.97;5026233;28;20033;-80
2022/12/20 00:15:34;;;;;;;61.42;29.80;;;;;;;1.02;94.46;99064.53;5035833;28;20041;-80
2022/12/20 00:18:00;;;;;;;54.92;26.58;;;;;;;1.03;93.93;99066.97;5033274;28;20026;-80
2022/12/20 00:20:27;;;;;;;55.58;27.17;;;;;;;1.02;93.67;99048.75;5026244;28;20140;-80
2022/12/20 00:22:53;;;;;;;60.97;29.05;;;;;;;0.88;94.12;99045.13;5032011;28;20619;-80
2022/12/20 00:25:19;;;;;;;57.60;27.73;;;;;;;0.87;94.14;99047.94;5022954;28;20037;-80
2022/12/20 00:27:45;;;;;;;54.90;27.35;;;;;;;0.99;94.16;99052.56;5026758;28;20060;-80
2022/12/20 00:30:11;;;;;;;57.28;28.60;;;;;;;0.97;94.43;99037.97;5026699;28;20381;-79
2022/12/20 00:32:37;;;;;;;48.45;27.20;;;;;;;0.96;94.14;99033.72;5029055;28;20052;-80
2022/12/20 00:35:03;;;;;;;58.22;25.95;;;;;;;1.10;94.09;99031.06;5028868;28;20042;-80
2022/12/20 00:37:29;;;;;;;55.72;28.20;;;;;;;0.85;94.21;99008.75;5030051;28;20388;-80
2022/12/20 00:39:54;;;;;;;61.42;29.83;;;;;;;1.00;94.38;99030.56;4998709;28;20029;-79
2022/12/20 00:42:19;;;;;;;52.80;27.20;;;;;;;1.13;94.39;99027.28;5009588;28;20044;-79
2022/12/20 00:44:45;;;;;;;52.40;26.48;;;;;;;1.18;93.41;99017.03;5022302;28;20116;-80
2022/12/20 00:47:10;;;;;;;48.53;27.85;;;;;;;1.24;92.06;99018.91;5013158;28;20312;-80
2022/12/20 00:49:35;;;;;;;50.10;24.73;;;;;;;1.34;92.59;99020.25;5022300;28;20030;-79
2022/12/20 00:52:01;;;;;;;46.63;24.42;;;;;;;1.35;92.30;99007.91;5023680;28;20053;-80
2022/12/20 00:54:26;;;;;;;46.30;24.23;;;;;;;1.31;93.07;99012.72;5025096;28;20393;-80
2022/12/20 00:56:52;;;;;;;46.72;25.80;;;;;;;1.25;93.89;99016.09;5024687;28;20033;-80
2022/12/20 00:59:17;;;;;;;45.20;23.48;;;;;;;1.25;94.17;99025.78;5017448;28;20052;-80
2022/12/20 01:01:42;;;;;;;45.38;24.15;;;;;;;1.28;94.24;99018.34;5022414;28;20147;-80
2022/12/20 01:04:08;;;;;;;43.53;24.27;;;;;;;1.27;93.72;99010.63;5020288;28;20029;-81
2022/12/20 01:06:34;;;;;;;51.08;24.50;;;;;;;1.29;93.37;99003.41;5016545;28;20037;-82
2022/12/20 01:09:00;;;;;;;48.63;23.88;;;;;;;1.29;93.43;98992.88;5008385;28;20038;-82
2022/12/20 01:11:37;;;;;;;43.25;24.23;;;;;;;1.39;92.87;98999.47;5022659;28;20454;-79
2022/12/20 01:14:06;;;;;;;48.22;26.33;;;;;;;1.35;92.73;98992.97;5032774;28;20408;-79
2022/12/20 01:16:38;;;;;;;47.10;24.55;;;;;;;1.39;92.84;98994.22;5018412;28;20036;-79
2022/12/20 01:19:04;;;;;;;43.92;23.55;;;;;;;1.43;93.11;99003.34;5004761;28;20033;-79
2022/12/20 01:21:29;;;;;;;50.65;25.60;;;;;;;1.44;91.86;99010.22;5027440;28;20057;-79
2022/12/20 01:23:55;;;;;;;46.78;25.20;;;;;;;1.38;92.34;99008.34;5024043;28;20064;-79
2022/12/20 01:26:23;;;;;;;43.25;23.35;;;;;;;1.41;92.64;99013.25;5007847;28;20021;-79
2022/12/20 01:28:52;;;;;;;39.38;23.10;;;;;;;1.40;92.20;99006.34;5026409;28;20037;-79
2022/12/20 01:31:18;;;;;;;47.42;23.08;;;;;;;1.52;92.21;99001.41;5021454;28;20037;-80
2022/12/20 01:33:46;;;;;;;45.78;22.17;;;;;;;1.43;92.20;98992.84;5020791;28;20137;-79
2022/12/20 01:36:15;;;;;;;50.00;25.00;;;;;;;1.40;92.81;99002.88;5023365;28;20029;-79
2022/12/20 01:38:41;;;;;;;46.85;23.33;;;;;;;1.35;92.63;98992.13;5040682;28;20021;-80
2022/12/20 01:41:07;;;;;;;47.00;24.65;;;;;;;1.36;93.78;98991.94;5020432;28;20064;-80
2022/12/20 01:43:44;;;;;;;50.90;25.45;;;;;;;1.31;93.74;99004.81;5021751;28;21308;-79
2022/12/20 01:46:10;;;;;;;50.47;24.63;;;;;;;1.35;93.74;98981.63;5025127;28;20052;-80
2022/12/20 01:48:35;;;;;;;45.20;23.85;;;;;;;1.49;92.56;99005.22;5022958;28;20079;-80
2022/12/20 01:51:01;;;;;;;41.28;22.50;;;;;;;1.47;92.41;98993.25;5023074;28;20048;-80
2022/12/20 01:53:26;;;;;;;38.92;21.90;;;;;;;1.45;92.95;98990.84;5020203;28;20029;-80
2022/12/20 01:55:52;;;;;;;42.78;23.48;;;;;;;1.45;92.85;99001.34;5021634;28;20036;-80
2022/12/20 01:58:20;;;;;;;43.25;23.42;;;;;;;1.56;91.36;98991.31;5017950;28;20499;-80
2022/12/20 02:00:46;;;;;;;41.55;22.50;;;;;;;1.59;91.77;98975.19;5024372;28;20555;-80
2022/12/20 02:03:14;;;;;;;40.05;20.58;;;;;;;1.51;91.48;98966.41;5021555;28;20056;-79
2022/12/20 02:05:43;;;;;;;38.42;20.73;;;;;;;1.53;92.69;98969.66;5023916;28;20119;-80
2022/12/20 02:08:12;;;;;;;46.08;23.40;;;;;;;1.48;93.33;98963.34;5024168;28;20024;-81
2022/12/20 02:11:05;;;;;;;40.97;22.40;;;;;;;1.42;93.90;98975.41;5020466;28;20037;-81
2022/12/20 02:13:42;;;;;;;39.97;21.65;;;;;;;1.30;94.76;98982.19;5023120;28;20029;-81
2022/12/20 02:16:10;;;;;;;40.03;21.70;;;;;;;1.26;95.14;98980.94;5035897;28;20405;-79
2022/12/20 02:18:51;;;;;;;48.22;24.05;;;;;;;1.34;94.53;98975.53;5031351;28;20061;-81
2022/12/20 02:21:34;;;;;;;46.08;23.10;;;;;;;1.30;95.66;98969.03;5010663;28;20033;-82
2022/12/20 02:24:18;;;;;;;41.70;22.40;;;;;;;1.31;95.85;98975.91;5020785;28;20438;-81
2022/12/20 02:27:14;;;;;;;40.53;22.75;;;;;;;1.31;95.63;98975.91;5023997;28;20036;-79
2022/12/20 02:29:56;;;;;;;42.37;22.43;;;;;;;1.27;95.98;98963.31;5024149;28;20106;-79
2022/12/20 02:32:27;;;;;;;45.15;22.42;;;;;;;1.43;94.78;98976.25;5027330;28;20033;-80
2022/12/20 02:34:53;;;;;;;44.13;22.63;;;;;;;1.36;95.05;98978.81;5027019;28;20045;-80
2022/12/20 02:37:19;;;;;;;45.40;24.65;;;;;;;1.44;94.48;98980.50;4991886;28;20128;-80
2022/12/20 02:39:45;;;;;;;48.42;24.75;;;;;;;1.40;94.28;98974.78;5023758;28;20087;-80
2022/12/20 02:42:14;;;;;;;50.78;26.02;;;;;;;1.47;94.96;98980.13;5027155;28;20033;-79
2022/12/20 02:47:51;;;;;;;44.42;22.92;;;;;;;1.56;93.68;98967.66;5018434;28;20582;-80
2022/12/20 02:50:21;;;;;;;44.08;22.30;;;;;;;1.57;93.35;98958.78;5018531;28;20045;-80
2022/12/20 02:52:47;;;;;;;54.28;25.50;;;;;;;1.64;94.11;98959.66;5023558;28;20037;-80
2022/12/20 02:55:13;;;;;;;43.90;23.67;;;;;;;1.58;93.63;98952.50;5034689;28;20489;-80
2022/12/20 02:57:44;;;;;;;45.58;24.02;;;;;;;1.66;93.72;98947.91;5005123;28;20030;-79
2022/12/20 03:00:20;;;;;;;42.75;23.65;;;;;;;1.66;93.23;98939.25;5020185;28;20037;-80
2022/12/20 03:05:34;;;;;;;42.75;22.67;;;;;;;1.72;93.46;98927.94;5022950;28;20442;-79
2022/12/20 03:08:00;;;;;;;45.95;24.05;;;;;;;1.73;93.30;98934.81;5019988;28;20061;-80
2022/12/20 03:10:26;;;;;;;44.95;24.90;;;;;;;1.65;93.69;98932.34;5011295;28;20572;-79
2022/12/20 03:12:51;;;;;;;44.70;25.10;;;;;;;1.69;93.69;98931.78;5019412;28;20060;-79
2022/12/20 03:15:17;;;;;;;48.15;24.88;;;;;;;1.70;93.87;98938.66;5022539;28;20037;-79
2022/12/20 03:17:42;;;;;;;47.97;23.92;;;;;;;1.70;94.18;98943.94;5025397;28;20104;-79
2022/12/20 03:20:10;;;;;;;50.88;26.20;;;;;;;1.57;94.28;98929.84;5031501;28;20024;-79
2022/12/20 03:22:35;;;;;;;48.78;25.50;;;;;;;1.61;94.04;98923.19;5017252;28;20034;-79
2022/12/20 03:25:01;;;;;;;43.65;23.63;;;;;;;1.65;93.63;98932.34;5027544;28;20029;-79
2022/12/20 03:27:29;;;;;;;47.03;24.15;;;;;;;1.61;92.99;98929.28;5007550;28;20055;-79
2022/12/20 03:29:54;;;;;;;40.85;23.05;;;;;;;1.68;93.76;98934.59;5010320;28;20099;-79
2022/12/20 03:32:20;;;;;;;44.13;22.92;;;;;;;1.75;93.05;98943.38;5026647;28;20033;-80
2022/12/20 03:34:46;;;;;;;48.63;23.50;;;;;;;1.79;93.10;98944.59;5026481;28;20026;-79
2022/12/20 03:37:11;;;;;;;45.30;23.60;;;;;;;1.72;93.76;98951.63;5025478;28;20044;-80
2022/12/20 03:39:37;;;;;;;46.03;25.25;;;;;;;1.71;94.36;98942.91;5029075;28;20036;-80
2022/12/20 03:42:02;;;;;;;46.97;25.40;;;;;;;1.70;94.42;98943.94;5029083;28;20124;-80
2022/12/20 03:44:28;;;;;;;46.80;24.25;;;;;;;1.59;94.62;98948.88;5026461;28;20033;-79
2022/12/20 03:46:53;;;;;;;50.92;26.88;;;;;;;1.53;95.44;98948.63;5045365;28;20066;-80
2022/12/20 03:49:18;;;;;;;50.33;25.23;;;;;;;1.52;95.02;98939.13;5026392;28;20042;-80
2022/12/20 03:51:44;;;;;;;53.63;27.80;;;;;;;1.62;94.39;98936.16;5035356;28;20476;-80
2022/12/20 03:54:09;;;;;;;45.53;25.90;;;;;;;1.58;93.70;98928.81;5017451;28;20038;-80
2022/12/20 03:56:34;;;;;;;46.47;24.23;;;;;;;1.66;94.23;98940.03;5026598;28;20140;-80
2022/12/20 03:59:00;;;;;;;46.00;25.60;;;;;;;1.74;93.40;98941.72;5024850;28;20033;-81
2022/12/20 04:01:27;;;;;;;50.15;24.63;;;;;;;1.86;92.91;98959.44;5044143;28;20479;-82
2022/12/20 04:03:53;;;;;;;43.83;25.00;;;;;;;1.89;92.94;98952.97;5032176;28;20385;-82
2022/12/20 04:06:22;;;;;;;45.28;24.38;;;;;;;1.85;93.03;98930.69;5011088;28;20030;-81
2022/12/20 04:08:48;;;;;;;44.40;22.98;;;;;;;1.69;93.57;98941.47;5029190;28;21513;-82
2022/12/20 04:11:15;;;;;;;48.95;25.80;;;;;;;1.59;95.82;98944.44;5020003;28;20044;-81
2022/12/20 04:13:42;;;;;;;50.72;25.67;;;;;;;1.62;96.28;98935.38;5034007;28;20037;-80
2022/12/20 04:16:07;;;;;;;52.10;25.20;;;;;;;1.60;95.45;98939.97;5027894;28;20033;-79
2022/12/20 04:18:33;;;;;;;51.72;25.63;;;;;;;1.63;95.06;98929.09;5033934;28;20484;-81
2022/12/20 04:21:02;;;;;;;53.38;25.52;;;;;;;1.60;95.80;98937.34;5030338;28;20033;-80
2022/12/20 04:23:28;;;;;;;48.67;25.02;;;;;;;1.64;95.87;98934.16;5029498;28;20365;-80
2022/12/20 04:25:53;;;;;;;44.83;24.98;;;;;;;1.70;95.29;98920.25;5030796;28;20037;-80
2022/12/20 04:28:19;;;;;;;48.58;25.90;;;;;;;1.66;94.91;98915.56;5020596;28;20128;-80
2022/12/20 04:30:44;;;;;;;50.55;25.20;;;;;;;1.68;94.32;98916.19;4995779;28;20067;-80
2022/12/20 04:33:09;;;;;;;48.33;25.52;;;;;;;1.70;94.13;98922.88;5031981;28;20107;-80
2022/12/20 04:35:36;;;;;;;50.15;26.33;;;;;;;1.74;93.98;98925.94;5027253;28;20037;-80
2022/12/20 04:38:02;;;;;;;48.75;25.70;;;;;;;1.70;96.01;98938.66;5029073;28;20100;-80
2022/12/20 04:40:27;;;;;;;52.38;25.90;;;;;;;1.63;94.66;98937.78;5043535;28;20259;-80
2022/12/20 04:42:52;;;;;;;47.90;27.10;;;;;;;1.73;95.35;98942.72;5025131;28;20108;-79
2022/12/20 04:45:18;;;;;;;49.42;25.08;;;;;;;1.68;95.08;98932.78;4993406;28;20045;-79
2022/12/20 04:47:43;;;;;;;48.28;27.80;;;;;;;1.78;94.41;98940.34;5018192;28;20403;-82
2022/12/20 04:50:09;;;;;;;49.42;25.20;;;;;;;1.62;95.62;98933.53;5032225;28;20182;-81
2022/12/20 04:55:18;;;;;;;48.72;27.35;;;;;;;1.59;97.42;98927.84;5031024;28;20435;-79
2022/12/20 04:57:44;;;;;;;50.33;28.13;;;;;;;1.77;93.93;98938.72;5026355;28;20120;-79
2022/12/20 05:00:09;;;;;;;46.97;25.20;;;;;;;1.85;93.69;98933.31;5010369;28;20392;-79
2022/12/20 05:02:35;;;;;;;43.97;23.33;;;;;;;1.78;94.45;98921.91;5044740;28;20029;-79
2022/12/20 05:05:00;;;;;;;47.58;25.95;;;;;;;1.93;92.91;98930.53;5030360;28;20037;-79
2022/12/20 05:07:26;;;;;;;39.88;22.85;;;;;;;2.02;91.69;98953.91;5028982;28;20093;-79
2022/12/20 05:09:52;;;;;;;51.85;26.10;;;;;;;2.00;92.03;98944.56;5024697;28;20026;-79
2022/12/20 05:12:17;;;;;;;42.58;21.95;;;;;;;1.98;92.50;98936.03;5014994;28;20033;-79
2022/12/20 05:14:42;;;;;;;40.55;24.23;;;;;;;1.93;93.33;98909.47;5005500;28;20037;-79
2022/12/20 05:17:08;;;;;;;44.38;23.63;;;;;;;1.93;93.99;98920.00;5001696;28;20041;-79
2022/12/20 05:19:34;;;;;;;45.00;23.33;;;;;;;1.93;93.05;98920.00;5013900;28;20036;-80
2022/12/20 05:27:27;;;;;;;48.50;24.60;;;;;;;2.03;91.74;98912.59;5013301;28;20037;-80
2022/12/20 05:29:52;;;;;;;39.88;21.48;;;;;;;2.01;91.69;98904.88;5022602;28;20037;-79
2022/12/20 05:32:17;;;;;;;43.03;26.55;;;;;;;2.12;91.53;98912.25;5026226;28;20029;-79
2022/12/20 05:34:43;;;;;;;39.33;22.05;;;;;;;2.15;91.29;98914.50;5027304;28;20087;-79
2022/12/20 05:37:08;;;;;;;48.50;21.98;;;;;;;2.16;91.27;98923.22;5026417;28;20033;-80
2022/12/20 05:39:33;;;;;;;38.42;21.60;;;;;;;2.13;91.88;98934.94;5023533;28;20036;-80
2022/12/20 05:41:59;;;;;;;45.13;23.80;;;;;;;2.21;94.06;98920.81;5026616;28;20382;-79
2022/12/20 05:44:24;;;;;;;44.80;25.50;;;;;;;2.34;94.21;98928.78;5026938;28;20021;-79
2022/12/20 05:46:49;;;;;;;41.13;24.50;;;;;;;2.25;94.31;98916.78;5032881;28;20033;-79
2022/12/20 05:49:15;;;;;;;42.80;23.92;;;;;;;2.18;95.13;98918.56;5033519;28;20029;-79
2022/12/20 05:51:40;;;;;;;41.70;24.50;;;;;;;2.14;94.72;98923.41;5033445;28;20087;-81
2022/12/20 05:54:06;;;;;;;40.88;24.58;;;;;;;2.05;97.64;98916.66;5031965;28;20025;-80
2022/12/20 05:56:31;;;;;;;44.58;23.88;;;;;;;2.13;98.61;98918.34;5035143;28;20021;-79
2022/12/20 05:58:57;;;;;;;51.38;26.10;;;;;;;2.09;97.48;98901.31;5032177;28;20029;-79
2022/12/20 06:01:23;;;;;;;44.78;24.13;;;;;;;2.13;95.81;98908.63;5035235;28;20432;-79
2022/12/20 06:03:49;;;;;;;50.80;25.85;;;;;;;2.14;95.75;98902.34;5035605;28;20033;-79
2022/12/20 06:06:15;;;;;;;44.70;25.15;;;;;;;2.40;93.23;98914.88;5034033;28;20060;-79
2022/12/20 06:08:40;;;;;;;45.30;25.02;;;;;;;2.31;92.48;98909.94;5036213;28;20096;-79
2022/12/20 06:11:06;;;;;;;39.25;24.25;;;;;;;2.31;92.85;98904.66;5031950;28;20037;-79
2022/12/20 06:13:31;;;;;;;40.00;23.42;;;;;;;2.31;93.12;98902.03;5033984;28;20052;-79
2022/12/20 06:15:57;;;;;;;41.08;22.38;;;;;;;2.33;94.04;98900.03;5033962;28;20087;-81
2022/12/20 06:18:22;;;;;;;48.30;26.33;;;;;;;2.16;93.68;98889.00;5030954;28;20029;-81
2022/12/20 06:20:52;;;;;;;38.65;22.55;;;;;;;2.33;93.57;98900.84;5000550;28;20040;-79
2022/12/20 06:23:19;;;;;;;41.15;21.90;;;;;;;2.30;93.90;98901.22;5018517;28;20432;-81
2022/12/20 06:25:45;;;;;;;43.38;23.10;;;;;;;2.26;93.14;98887.63;5031367;28;20032;-81
2022/12/20 06:28:10;;;;;;;47.53;24.48;;;;;;;2.24;94.01;98909.91;5026425;28;20041;-80
2022/12/20 06:30:36;;;;;;;51.10;25.30;;;;;;;2.18;93.99;98908.84;5029867;28;20113;-79
2022/12/20 06:33:02;;;;;;;42.15;22.58;;;;;;;2.20;94.24;98908.66;5047433;28;20033;-81
2022/12/20 06:35:28;;;;;;;43.28;23.65;;;;;;;2.30;93.54;98911.75;5032960;28;20021;-81
2022/12/20 06:37:53;;;;;;;43.92;21.42;;;;;;;2.24;93.55;98912.53;5028623;28;20042;-79
2022/12/20 06:40:19;;;;;;;44.25;23.42;;;;;;;2.18;94.54;98914.09;5014262;28;20093;-80
2022/12/20 06:42:44;;;;;;;42.83;24.15;;;;;;;2.18;94.40;98911.47;5031347;28;20029;-79
2022/12/20 06:45:10;;;;;;;45.08;23.58;;;;;;;2.22;93.92;98901.38;5035219;28;20037;-79
2022/12/20 06:47:36;;;;;;;40.75;22.55;;;;;;;2.33;93.53;98902.66;5013979;28;20037;-79
2022/12/20 06:50:01;;;;;;;35.75;20.98;;;;;;;2.35;93.42;98916.44;5036812;28;20397;-79
2022/12/20 06:52:27;;;;;;;44.40;23.15;;;;;;;2.24;93.60;98902.81;5031318;28;20026;-80
2022/12/20 06:54:52;;;;;;;41.35;21.63;;;;;;;2.24;94.54;98909.91;5006328;28;20051;-79
2022/12/20 06:57:18;;;;;;;41.15;22.60;;;;;;;2.22;94.25;98898.75;5033304;28;20033;-79
2022/12/20 06:59:43;;;;;;;40.15;22.88;;;;;;;2.17;95.19;98894.06;5035240;28;20025;-79
2022/12/20 07:02:12;;;;;;;39.95;22.15;;;;;;;2.19;94.29;98885.97;5033618;28;20029;-79
2022/12/20 07:04:38;;;;;;;38.90;22.55;;;;;;;2.24;94.77;98894.09;5035627;28;20026;-79
2022/12/20 07:07:03;;;;;;;37.05;20.65;;;;;;;2.21;95.25;98894.47;5029354;28;20087;-79
2022/12/20 07:09:29;;;;;;;37.60;21.38;;;;;;;2.27;94.95;98899.78;5036893;28;20030;-79
2022/12/20 07:11:55;;;;;;;43.47;23.25;;;;;;;2.20;95.19;98906.03;5037822;28;20037;-79
2022/12/20 07:14:20;;;;;;;45.08;23.50;;;;;;;2.20;95.08;98884.97;5018490;28;20120;-79
2022/12/20 07:16:46;;;;;;;38.55;23.08;;;;;;;2.18;95.15;98900.94;5019919;28;20091;-80
2022/12/20 07:19:13;;;;;;;52.70;25.98;;;;;;;2.01;97.39;98891.72;5036253;28;20503;-79
2022/12/20 07:21:38;;;;;;;48.05;25.83;;;;;;;2.08;96.14;98884.69;5032801;28;20026;-79
2022/12/20 07:24:05;;;;;;;42.13;22.02;;;;;;;2.07;97.31;98879.63;5028509;28;20418;-79
2022/12/20 07:26:30;;;;;;;43.75;24.20;;;;;;;2.12;95.92;98880.66;5028310;28;20044;-79
2022/12/20 07:28:56;;;;;;;45.05;22.67;;;;;;;2.24;95.84;98894.91;5018601;28;20037;-79
2022/12/20 07:31:21;;;;;;;44.88;24.02;;;;;;;2.32;95.55;98899.19;5020991;28;20918;-79
2022/12/20 07:33:46;;;;;;;46.80;24.13;;;;;;;2.26;95.52;98892.91;5021184;28;20037;-79
2022/12/20 07:36:14;;;;;;;50.10;24.70;;;;;;;2.31;95.19;98886.25;5018710;28;20769;-81
2022/12/20 07:38:41;;;;;;;37.88;22.02;;;;;;;2.22;95.58;98889.03;5018756;28;20022;-81
2022/12/20 07:41:12;;;;;;;43.13;23.00;;;;;;;2.29;95.04;98873.28;5020645;28;20104;-79
2022/12/20 07:43:38;;;;;;;41.22;23.98;;;;;;;2.28;93.92;98883.00;5021403;28;20025;-79
2022/12/20 07:46:05;;;;;;;40.05;23.55;;;;;;;2.36;93.41;98878.56;5022619;28;20063;-79
2022/12/20 07:48:31;;;;;;;48.58;24.83;;;;;;;2.27;93.85;98883.19;5036237;28;20072;-79
2022/12/20 07:51:05;;;;;;;41.53;22.48;;;;;;;2.24;94.62;98886.19;5021625;28;20615;-79
2022/12/20 07:53:35;;;;;;;48.80;25.48;;;;;;;2.18;94.39;98879.09;5022977;28;20025;-79
2022/12/20 07:56:01;;;;;;;42.13;23.33;;;;;;;2.26;94.20;98878.91;5027046;28;20041;-79
2022/12/20 07:58:28;;;;;;;42.67;22.65;;;;;;;2.27;94.40;98880.56;5032220;28;20075;-79
2022/12/20 08:00:56;;;;;;;47.65;24.13;;;;;;;2.32;94.36;98893.13;5031559;28;20030;-79
2022/12/20 08:03:27;;;;;;;48.28;23.20;;;;;;;2.29;94.58;98887.22;5029815;28;20025;-79
2022/12/20 08:05:56;;;;;;;39.63;22.55;;;;;;;2.23;94.76;98877.47;5035648;28;20041;-79
2022/12/20 08:08:22;;;;;;;47.75;24.75;;;;;;;2.17;94.86;98872.19;5028555;28;20030;-79
2022/12/20 08:10:48;;;;;;;45.40;24.35;;;;;;;2.09;95.24;98853.91;5038783;28;20040;-79
2022/12/20 08:13:14;;;;;;;41.83;23.05;;;;;;;2.16;95.09;98866.09;5037382;28;20034;-79
2022/12/20 08:15:40;;;;;;;45.70;24.90;;;;;;;2.22;94.47;98860.06;5037586;28;20038;-79
2022/12/20 08:18:05;;;;;;;37.97;23.60;;;;;;;2.17;94.07;98867.72;5036970;28;20080;-79
2022/12/20 08:20:31;;;;;;;41.50;24.60;;;;;;;2.18;94.23;98874.59;5031830;28;20033;-79
2022/12/20 08:22:57;;;;;;;45.50;24.77;;;;;;;2.11;94.93;98859.81;5033381;28;20056;-79
2022/12/20 08:25:22;;;;;;;44.85;22.70;;;;;;;2.27;93.58;98856.84;5016379;28;20033;-79
2022/12/20 08:27:48;;;;;;;38.40;23.40;;;;;;;2.34;93.38;98862.94;5020410;28;20037;-79
2022/12/20 08:30:14;;;;;;;46.58;23.52;;;;;;;2.27;93.65;98862.91;5023769;28;20432;-79
2022/12/20 08:32:39;;;;;;;40.38;22.38;;;;;;;2.38;92.87;98877.34;5019488;28;20497;-79
2022/12/20 08:35:05;;;;;;;45.88;23.50;;;;;;;2.41;92.52;98866.44;5022103;28;20038;-79
2022/12/20 08:37:31;;;;;;;41.05;23.77;;;;;;;2.35;92.62;98845.34;5021772;28;20056;-79
2022/12/20 08:39:57;;;;;;;43.50;23.73;;;;;;;2.42;93.07;98844.38;5018604;28;20060;-79
2022/12/20 08:42:22;;;;;;;44.45;23.23;;;;;;;2.43;92.85;98839.88;5023726;28;20512;-79
2022/12/20 08:44:47;;;;;;;41.63;22.83;;;;;;;2.38;93.72;98844.94;5022525;28;20025;-79
2022/12/20 08:47:13;;;;;;;38.38;21.95;;;;;;;2.39;93.86;98843.94;5037581;28;20053;-79
2022/12/20 08:49:38;;;;;;;41.00;22.25;;;;;;;2.43;93.58;98853.06;5024810;28;20037;-79
2022/12/20 08:52:04;;;;;;;37.05;20.77;;;;;;;2.45;92.91;98840.50;5005473;28;20026;-79
2022/12/20 08:54:29;;;;;;;40.63;21.67;;;;;;;2.49;93.06;98836.50;5022606;28;20043;-79
2022/12/20 08:56:54;;;;;;;46.42;24.85;;;;;;;2.43;95.25;98832.81;5007165;28;20045;-79
2022/12/20 08:59:20;;;;;;;40.28;21.60;;;;;;;2.57;92.95;98839.75;5023548;28;20033;-79
2022/12/20 09:01:45;;;;;;;36.75;21.75;;;;;;;2.70;91.74;98838.97;5023737;28;20033;-79
2022/12/20 09:04:11;;;;;;;32.90;21.02;;;;;;;2.73;90.86;98842.03;5021564;28;20045;-79
2022/12/20 09:06:37;;;;;;;35.30;20.67;;;;;;;2.71;91.26;98835.34;5023365;28;20038;-79
2022/12/20 09:09:03;;;;;;;37.75;21.58;;;;;;;2.67;90.87;98827.00;5023182;28;20032;-79
2022/12/20 09:11:29;;;;;;;34.20;19.83;;;;;;;2.61;91.60;98816.44;5033910;28;20041;-79
2022/12/20 09:13:57;;;;;;;38.85;21.00;;;;;;;2.51;91.78;98811.56;5035305;28;20388;-79
2022/12/20 09:16:26;;;;;;;37.97;21.90;;;;;;;2.73;91.39;98815.66;5019311;28;20033;-79
2022/12/20 09:18:53;;;;;;;36.90;20.50;;;;;;;2.70;91.27;98816.09;5034573;28;20029;-79
2022/12/20 09:21:20;;;;;;;36.60;19.88;;;;;;;2.70;91.02;98816.09;5021539;28;20025;-79
2022/12/20 09:23:47;;;;;;;33.55;19.48;;;;;;;2.71;90.72;98814.28;5019813;28;20510;-79
2022/12/20 09:26:14;;;;;;;38.28;22.02;;;;;;;2.68;91.50;98812.03;5023349;28;20524;-79
2022/12/20 09:28:41;;;;;;;35.25;19.35;;;;;;;2.81;91.11;98815.50;5022412;28;20608;-79
2022/12/20 09:31:10;;;;;;;35.28;19.27;;;;;;;2.69;91.15;98808.34;5021311;28;20086;-79
2022/12/20 09:33:36;;;;;;;40.45;21.02;;;;;;;2.74;91.27;98834.94;5021647;28;20021;-79
2022/12/20 09:36:02;;;;;;;33.28;19.65;;;;;;;2.71;91.55;98827.44;5019658;28;20040;-79
2022/12/20 09:38:30;;;;;;;30.10;19.48;;;;;;;2.80;91.71;98848.13;5033748;28;20025;-79
2022/12/20 09:41:02;;;;;;;38.85;21.70;;;;;;;2.63;91.98;98831.06;5017476;28;20127;-79
2022/12/20 09:43:28;;;;;;;35.83;20.30;;;;;;;2.67;93.60;98850.72;5019453;28;20474;-79
2022/12/20 09:46:00;;;;;;;35.55;19.45;;;;;;;2.67;93.33;98834.91;5018611;28;21277;-79
2022/12/20 09:48:37;;;;;;;33.55;19.73;;;;;;;2.71;92.67;98825.59;5020205;28;20025;-79
2022/12/20 09:51:17;;;;;;;36.28;20.63;;;;;;;2.87;90.58;98827.88;5020829;28;20032;-79
2022/12/20 09:53:42;;;;;;;34.83;19.33;;;;;;;2.84;91.08;98827.47;5020228;28;20045;-79
2022/12/20 09:56:31;;;;;;;29.83;18.13;;;;;;;2.86;92.57;98810.44;5024011;28;20025;-79
2022/12/20 09:58:59;;;;;;;34.55;20.15;;;;;;;2.95;94.35;98801.31;5033242;28;20473;-79
2022/12/20 10:01:27;;;;;;;40.47;19.05;;;;;;;2.95;92.06;98789.97;5032009;28;20028;-79
2022/12/20 10:03:55;;;;;;;36.58;20.15;;;;;;;3.05;92.39;98782.50;5032602;28;20029;-79
2022/12/20 10:06:39;;;;;;;32.58;20.23;;;;;;;3.06;93.77;98778.03;5013954;28;20172;-80
2022/12/20 10:09:14;;;;;;;34.35;19.90;;;;;;;3.04;93.52;98775.56;5012754;28;20034;-79
2022/12/20 10:11:58;;;;;;;29.13;17.85;;;;;;;3.14;89.40;98785.72;5012143;28;20026;-79
2022/12/20 10:14:39;;;;;;;27.42;16.48;;;;;;;3.29;88.44;98778.44;5019898;28;20074;-79
2022/12/20 10:17:12;;;;;;;29.58;16.98;;;;;;;3.18;90.03;98777.22;5034282;28;20568;-79
2022/12/20 10:19:45;;;;;;;28.15;16.90;;;;;;;3.23;90.72;98789.78;5037056;28;20018;-79
2022/12/20 10:22:19;;;;;;;28.35;17.08;;;;;;;3.13;91.65;98784.09;5036913;28;20092;-79
2022/12/20 10:25:00;;;;;;;30.48;17.90;;;;;;;3.15;91.86;98784.69;5036223;28;20058;-79
2022/12/20 10:27:26;;;;;;;25.90;16.85;;;;;;;3.21;91.63;98781.28;5035708;28;20033;-79
2022/12/20 10:29:51;;;;;;;32.00;17.77;;;;;;;3.13;91.52;98761.19;5035915;28;20376;-79
2022/12/20 10:32:22;;;;;;;29.92;18.95;;;;;;;3.30;92.30;98772.16;5022567;28;20033;-79
2022/12/20 10:35:09;;;;;;;29.90;17.88;;;;;;;3.29;92.27;98779.25;5005791;28;20054;-79
2022/12/20 10:37:34;;;;;;;30.77;17.02;;;;;;;3.35;92.26;98762.59;5022588;28;20029;-79
2022/12/20 10:40:00;;;;;;;29.58;17.58;;;;;;;3.31;92.47;98753.47;5023690;28;20316;-79
2022/12/20 10:42:39;;;;;;;27.48;17.10;;;;;;;3.43;91.84;98759.75;5022872;28;20033;-79
2022/12/20 10:45:17;;;;;;;27.92;17.05;;;;;;;3.43;92.70;98764.22;5022094;28;21454;-79
2022/12/20 10:47:45;;;;;;;27.20;16.08;;;;;;;3.46;93.75;98748.78;5021937;28;20037;-79
2022/12/20 10:50:20;;;;;;;31.27;17.05;;;;;;;3.49;92.72;98743.13;5023715;28;20040;-79
2022/12/20 10:53:09;;;;;;;24.13;15.88;;;;;;;3.52;91.50;98736.59;5008172;28;20037;-79
2022/12/20 10:55:40;;;;;;;29.45;17.92;;;;;;;3.58;94.92;98738.44;5024058;28;20484;-79
2022/12/20 10:58:30;;;;;;;26.73;15.77;;;;;;;3.63;92.65;98733.31;5024516;28;20017;-79
2022/12/20 11:01:27;;;;;;;27.83;17.58;;;;;;;3.66;89.99;98727.66;5021616;28;20025;-79
2022/12/20 11:03:55;;;;;;;24.80;15.18;;;;;;;3.65;92.11;98726.00;5020720;28;20045;-79
2022/12/20 11:06:25;;;;;;;27.80;16.10;;;;;;;3.64;93.15;98716.47;5020654;28;20439;-79
2022/12/20 11:08:50;;;;;;;25.98;15.55;;;;;;;3.67;94.80;98714.22;5001807;28;20058;-79
2022/12/20 11:11:22;;;;;;;25.25;16.27;;;;;;;3.71;90.54;98701.44;5006500;28;20069;-79
2022/12/20 11:13:49;;;;;;;25.83;16.38;;;;;;;3.84;96.38;98700.59;5037334;28;20036;-79
2022/12/20 11:16:21;;;;;;;27.40;16.45;;;;;;;3.74;91.92;98707.09;5002753;28;20033;-79
2022/12/20 11:18:55;;;;;;;33.75;19.27;;;;;;;3.93;98.75;98686.94;5025228;28;20055;-79
2022/12/20 11:21:47;;;;;;;20.25;14.02;;;;;;;3.95;94.16;98698.13;5022971;28;20025;-79
2022/12/20 11:24:25;;;;;;;27.05;15.75;;;;;;;3.82;92.43;98692.88;5017689;28;20064;-79
2022/12/20 11:27:22;;;;;;;23.25;15.60;;;;;;;3.98;92.86;98702.94;5024946;28;20049;-79
2022/12/20 11:30:12;;;;;;;25.75;14.52;;;;;;;4.08;89.99;98695.41;5040035;28;20167;-79
2022/12/20 11:33:02;;;;;;;23.75;13.68;;;;;;;4.10;90.34;98692.56;5018414;28;20033;-79
2022/12/20 11:35:54;;;;;;;22.40;13.43;;;;;;;4.06;91.20;98699.28;5022158;28;20855;-79
2022/12/20 11:38:36;;;;;;;25.77;15.07;;;;;;;4.06;90.89;98705.38;5025023;28;20571;-79
2022/12/20 11:41:17;;;;;;;25.63;15.48;;;;;;;4.05;91.14;98701.09;5036490;28;20484;-79
2022/12/20 11:43:54;;;;;;;29.95;16.80;;;;;;;4.04;90.92;98698.69;5023859;28;20033;-79